sensor_id;sensor_type;location;lat;lon;timestamp;temperature;humidity
1568;DHT22;777;47.156;8.326;2023-02-28T00:00:12;-1.40;99.90
1568;DHT22;777;47.156;8.326;2023-02-28T00:02:41;-1.40;99.90
1568;DHT22;777;47.156;8.326;2023-02-28T00:05:10;-1.40;99.90
1568;DHT22;777;47.156;8.326;2023-02-28T00:07:37;-1.30;99.90
1568;DHT22;777;47.156;8.326;2023-02-28T00:10:05;-1.30;99.90
1568;DHT22;777;47.156;8.326;2023-02-28T00:12:33;-1.30;99.90
1568;DHT22;777;47.156;8.326;2023-02-28T00:15:01;-1.30;99.90
1568;DHT22;777;47.156;8.326;2023-02-28T00:17:29;-1.40;99.90
1568;DHT22;777;47.156;8.326;2023-02-28T00:19:56;-1.40;99.90
1568;DHT22;777;47.156;8.326;2023-02-28T00:22:27;-1.40;99.90
1568;DHT22;777;47.156;8.326;2023-02-28T00:24:54;-1.30;99.90
1568;DHT22;777;47.156;8.326;2023-02-28T00:27:21;-1.40;99.90
1568;DHT22;777;47.156;8.326;2023-02-28T00:29:48;-1.40;99.90
1568;DHT22;777;47.156;8.326;2023-02-28T00:32:16;-1.40;99.90
1568;DHT22;777;47.156;8.326;2023-02-28T00:34:44;-1.40;99.90
1568;DHT22;777;47.156;8.326;2023-02-28T00:37:11;-1.40;99.90
1568;DHT22;777;47.156;8.326;2023-02-28T00:39:39;-1.40;99.90
1568;DHT22;777;47.156;8.326;2023-02-28T00:42:07;-1.40;99.90
1568;DHT22;777;47.156;8.326;2023-02-28T00:44:34;-1.40;99.90
1568;DHT22;777;47.156;8.326;2023-02-28T00:47:01;-1.30;99.90
1568;DHT22;777;47.156;8.326;2023-02-28T00:49:29;-1.40;99.90
1568;DHT22;777;47.156;8.326;2023-02-28T00:51:57;-1.40;99.90
1568;DHT22;777;47.156;8.326;2023-02-28T00:54:25;-1.40;99.90
1568;DHT22;777;47.156;8.326;2023-02-28T00:56:53;-1.40;99.90
1568;DHT22;777;47.156;8.326;2023-02-28T00:59:19;-1.40;99.90
1568;DHT22;777;47.156;8.326;2023-02-28T01:01:47;-1.40;99.90
1568;DHT22;777;47.156;8.326;2023-02-28T01:04:14;-1.40;99.90
1568;DHT22;777;47.156;8.326;2023-02-28T01:06:43;-1.40;99.90
1568;DHT22;777;47.156;8.326;2023-02-28T01:09:11;-1.50;99.90
1568;DHT22;777;47.156;8.326;2023-02-28T01:11:38;-1.50;99.90
1568;DHT22;777;47.156;8.326;2023-02-28T01:14:06;-1.50;99.90
1568;DHT22;777;47.156;8.326;2023-02-28T01:16:33;-1.50;99.90
1568;DHT22;777;47.156;8.326;2023-02-28T01:19:02;-1.50;99.90
1568;DHT22;777;47.156;8.326;2023-02-28T01:21:29;-1.50;99.90
1568;DHT22;777;47.156;8.326;2023-02-28T01:23:58;-1.50;99.90
1568;DHT22;777;47.156;8.326;2023-02-28T01:26:25;-1.50;99.90
1568;DHT22;777;47.156;8.326;2023-02-28T01:28:53;-1.50;99.90
1568;DHT22;777;47.156;8.326;2023-02-28T01:31:21;-1.50;99.90
1568;DHT22;777;47.156;8.326;2023-02-28T01:33:49;-1.50;99.90
1568;DHT22;777;47.156;8.326;2023-02-28T01:36:18;-1.50;99.90
1568;DHT22;777;47.156;8.326;2023-02-28T01:38:46;-1.40;99.90
1568;DHT22;777;47.156;8.326;2023-02-28T01:41:17;-1.50;99.90
1568;DHT22;777;47.156;8.326;2023-02-28T01:43:59;-1.50;99.90
1568;DHT22;777;47.156;8.326;2023-02-28T01:46:29;-1.40;99.90
1568;DHT22;777;47.156;8.326;2023-02-28T01:49:00;-1.50;99.90
1568;DHT22;777;47.156;8.326;2023-02-28T01:51:31;-1.40;99.90
1568;DHT22;777;47.156;8.326;2023-02-28T01:54:02;-1.40;99.90
1568;DHT22;777;47.156;8.326;2023-02-28T01:56:34;-1.40;99.90
1568;DHT22;777;47.156;8.326;2023-02-28T01:59:04;-1.40;99.90
1568;DHT22;777;47.156;8.326;2023-02-28T02:01:31;-1.40;99.90
1568;DHT22;777;47.156;8.326;2023-02-28T02:04:02;-1.40;99.90
1568;DHT22;777;47.156;8.326;2023-02-28T02:06:34;-1.40;99.90
1568;DHT22;777;47.156;8.326;2023-02-28T02:09:02;-1.40;99.90
1568;DHT22;777;47.156;8.326;2023-02-28T02:11:31;-1.40;99.90
1568;DHT22;777;47.156;8.326;2023-02-28T02:14:28;-1.40;99.90
1568;DHT22;777;47.156;8.326;2023-02-28T02:17:10;-1.40;99.90
1568;DHT22;777;47.156;8.326;2023-02-28T02:23:16;-1.40;99.90
1568;DHT22;777;47.156;8.326;2023-02-28T02:25:52;-1.40;99.90
1568;DHT22;777;47.156;8.326;2023-02-28T02:28:52;-1.40;99.90
1568;DHT22;777;47.156;8.326;2023-02-28T02:34:41;-1.50;99.90
1568;DHT22;777;47.156;8.326;2023-02-28T02:37:15;-1.50;99.90
1568;DHT22;777;47.156;8.326;2023-02-28T02:39:45;-1.50;99.90
1568;DHT22;777;47.156;8.326;2023-02-28T02:42:21;-1.40;99.90
1568;DHT22;777;47.156;8.326;2023-02-28T02:44:56;-1.50;99.90
1568;DHT22;777;47.156;8.326;2023-02-28T02:47:27;-1.50;99.90
1568;DHT22;777;47.156;8.326;2023-02-28T02:49:59;-1.40;99.90
1568;DHT22;777;47.156;8.326;2023-02-28T02:52:34;-1.40;99.90
1568;DHT22;777;47.156;8.326;2023-02-28T02:55:07;-1.50;99.90
1568;DHT22;777;47.156;8.326;2023-02-28T02:57:40;-1.50;99.90
1568;DHT22;777;47.156;8.326;2023-02-28T03:00:11;-1.40;99.90
1568;DHT22;777;47.156;8.326;2023-02-28T03:02:40;-1.50;99.90
1568;DHT22;777;47.156;8.326;2023-02-28T03:05:17;-1.50;99.90
1568;DHT22;777;47.156;8.326;2023-02-28T03:07:45;-1.40;99.90
1568;DHT22;777;47.156;8.326;2023-02-28T03:10:43;-1.40;99.90
1568;DHT22;777;47.156;8.326;2023-02-28T03:13:42;-1.40;99.90
1568;DHT22;777;47.156;8.326;2023-02-28T03:16:32;-1.40;99.90
1568;DHT22;777;47.156;8.326;2023-02-28T03:19:20;-1.40;99.90
1568;DHT22;777;47.156;8.326;2023-02-28T03:21:58;-1.40;99.90
1568;DHT22;777;47.156;8.326;2023-02-28T03:24:32;-1.40;99.90
1568;DHT22;777;47.156;8.326;2023-02-28T03:27:06;-1.40;99.90
1568;DHT22;777;47.156;8.326;2023-02-28T03:29:37;-1.40;99.90
1568;DHT22;777;47.156;8.326;2023-02-28T03:32:12;-1.40;99.90
1568;DHT22;777;47.156;8.326;2023-02-28T03:34:48;-1.40;99.90
1568;DHT22;777;47.156;8.326;2023-02-28T03:37:22;-1.40;99.90
1568;DHT22;777;47.156;8.326;2023-02-28T03:39:53;-1.40;99.90
1568;DHT22;777;47.156;8.326;2023-02-28T03:42:24;-1.40;99.90
1568;DHT22;777;47.156;8.326;2023-02-28T03:44:55;-1.40;99.90
1568;DHT22;777;47.156;8.326;2023-02-28T03:47:26;-1.40;99.90
1568;DHT22;777;47.156;8.326;2023-02-28T03:49:57;-1.40;99.90
1568;DHT22;777;47.156;8.326;2023-02-28T03:52:31;-1.40;99.90
1568;DHT22;777;47.156;8.326;2023-02-28T03:55:02;-1.50;99.90
1568;DHT22;777;47.156;8.326;2023-02-28T03:57:37;-1.50;99.90
1568;DHT22;777;47.156;8.326;2023-02-28T04:00:08;-1.50;99.90
1568;DHT22;777;47.156;8.326;2023-02-28T04:02:41;-1.50;99.90
1568;DHT22;777;47.156;8.326;2023-02-28T04:05:08;-1.60;99.90
1568;DHT22;777;47.156;8.326;2023-02-28T04:07:37;-1.60;99.90
1568;DHT22;777;47.156;8.326;2023-02-28T04:10:05;-1.50;99.90
1568;DHT22;777;47.156;8.326;2023-02-28T04:12:32;-1.50;99.90
1568;DHT22;777;47.156;8.326;2023-02-28T04:14:59;-1.50;99.90
1568;DHT22;777;47.156;8.326;2023-02-28T04:17:26;-1.50;99.90
1568;DHT22;777;47.156;8.326;2023-02-28T04:19:53;-1.50;99.90
1568;DHT22;777;47.156;8.326;2023-02-28T04:22:22;-1.50;99.90
1568;DHT22;777;47.156;8.326;2023-02-28T04:24:52;-1.50;99.90
1568;DHT22;777;47.156;8.326;2023-02-28T04:27:20;-1.50;99.90
1568;DHT22;777;47.156;8.326;2023-02-28T04:29:48;-1.50;99.90
1568;DHT22;777;47.156;8.326;2023-02-28T04:32:14;-1.50;99.90
1568;DHT22;777;47.156;8.326;2023-02-28T04:34:41;-1.50;99.90
1568;DHT22;777;47.156;8.326;2023-02-28T04:37:08;-1.50;99.90
1568;DHT22;777;47.156;8.326;2023-02-28T04:39:36;-1.50;99.90
1568;DHT22;777;47.156;8.326;2023-02-28T04:42:05;-1.50;99.90
1568;DHT22;777;47.156;8.326;2023-02-28T04:44:32;-1.50;99.90
1568;DHT22;777;47.156;8.326;2023-02-28T04:46:59;-1.40;99.90
1568;DHT22;777;47.156;8.326;2023-02-28T04:49:26;-1.40;99.90
1568;DHT22;777;47.156;8.326;2023-02-28T04:51:53;-1.50;99.90
1568;DHT22;777;47.156;8.326;2023-02-28T04:54:21;-1.50;99.90
1568;DHT22;777;47.156;8.326;2023-02-28T04:56:48;-1.50;99.90
1568;DHT22;777;47.156;8.326;2023-02-28T04:59:17;-1.50;99.90
1568;DHT22;777;47.156;8.326;2023-02-28T05:01:47;-1.50;99.90
1568;DHT22;777;47.156;8.326;2023-02-28T05:04:14;-1.40;99.90
1568;DHT22;777;47.156;8.326;2023-02-28T05:06:41;-1.50;99.90
1568;DHT22;777;47.156;8.326;2023-02-28T05:09:08;-1.50;99.90
1568;DHT22;777;47.156;8.326;2023-02-28T05:11:37;-1.40;99.90
1568;DHT22;777;47.156;8.326;2023-02-28T05:14:07;-1.50;99.90
1568;DHT22;777;47.156;8.326;2023-02-28T05:16:37;-1.50;99.90
1568;DHT22;777;47.156;8.326;2023-02-28T05:19:04;-1.50;99.90
1568;DHT22;777;47.156;8.326;2023-02-28T05:21:33;-1.50;99.90
1568;DHT22;777;47.156;8.326;2023-02-28T05:24:02;-1.50;99.90
1568;DHT22;777;47.156;8.326;2023-02-28T05:26:33;-1.40;99.90
1568;DHT22;777;47.156;8.326;2023-02-28T05:29:01;-1.50;99.90
1568;DHT22;777;47.156;8.326;2023-02-28T05:31:28;-1.40;99.90
1568;DHT22;777;47.156;8.326;2023-02-28T05:33:56;-1.40;99.90
1568;DHT22;777;47.156;8.326;2023-02-28T05:36:23;-1.50;99.90
1568;DHT22;777;47.156;8.326;2023-02-28T05:38:51;-1.50;99.90
1568;DHT22;777;47.156;8.326;2023-02-28T05:41:19;-1.50;99.90
1568;DHT22;777;47.156;8.326;2023-02-28T05:43:47;-1.50;99.90
1568;DHT22;777;47.156;8.326;2023-02-28T05:46:14;-1.50;99.90
1568;DHT22;777;47.156;8.326;2023-02-28T05:48:42;-1.50;99.90
1568;DHT22;777;47.156;8.326;2023-02-28T05:51:14;-1.50;99.90
1568;DHT22;777;47.156;8.326;2023-02-28T05:53:41;-1.50;99.90
1568;DHT22;777;47.156;8.326;2023-02-28T05:56:08;-1.50;99.90
1568;DHT22;777;47.156;8.326;2023-02-28T05:58:35;-1.50;99.90
1568;DHT22;777;47.156;8.326;2023-02-28T06:01:21;-1.50;99.90
1568;DHT22;777;47.156;8.326;2023-02-28T06:03:48;-1.50;99.90
1568;DHT22;777;47.156;8.326;2023-02-28T06:06:16;-1.50;99.90
1568;DHT22;777;47.156;8.326;2023-02-28T06:08:43;-1.50;99.90
1568;DHT22;777;47.156;8.326;2023-02-28T06:11:11;-1.50;99.90
1568;DHT22;777;47.156;8.326;2023-02-28T06:13:38;-1.50;99.90
1568;DHT22;777;47.156;8.326;2023-02-28T06:16:06;-1.50;99.90
1568;DHT22;777;47.156;8.326;2023-02-28T06:18:33;-1.50;99.90
1568;DHT22;777;47.156;8.326;2023-02-28T06:21:00;-1.50;99.90
1568;DHT22;777;47.156;8.326;2023-02-28T06:23:28;-1.50;99.90
1568;DHT22;777;47.156;8.326;2023-02-28T06:25:55;-1.50;99.90
1568;DHT22;777;47.156;8.326;2023-02-28T06:28:24;-1.40;99.90
1568;DHT22;777;47.156;8.326;2023-02-28T06:30:51;-1.40;99.90
1568;DHT22;777;47.156;8.326;2023-02-28T06:33:18;-1.40;99.90
1568;DHT22;777;47.156;8.326;2023-02-28T06:35:46;-1.50;99.90
1568;DHT22;777;47.156;8.326;2023-02-28T06:38:14;-1.40;99.90
1568;DHT22;777;47.156;8.326;2023-02-28T06:40:42;-1.40;99.90
1568;DHT22;777;47.156;8.326;2023-02-28T06:43:09;-1.40;99.90
1568;DHT22;777;47.156;8.326;2023-02-28T06:45:43;-1.40;99.90
1568;DHT22;777;47.156;8.326;2023-02-28T06:48:10;-1.40;99.90
1568;DHT22;777;47.156;8.326;2023-02-28T06:50:38;-1.30;99.90
1568;DHT22;777;47.156;8.326;2023-02-28T06:53:05;-1.40;99.90
1568;DHT22;777;47.156;8.326;2023-02-28T06:55:32;-1.40;99.90
1568;DHT22;777;47.156;8.326;2023-02-28T06:58:00;-1.30;99.90
1568;DHT22;777;47.156;8.326;2023-02-28T07:00:27;-1.30;99.90
1568;DHT22;777;47.156;8.326;2023-02-28T07:02:54;-1.30;99.90
1568;DHT22;777;47.156;8.326;2023-02-28T07:05:21;-1.30;99.90
1568;DHT22;777;47.156;8.326;2023-02-28T07:07:48;-1.30;99.90
1568;DHT22;777;47.156;8.326;2023-02-28T07:10:15;-1.40;99.90
1568;DHT22;777;47.156;8.326;2023-02-28T07:12:43;-1.30;99.90
1568;DHT22;777;47.156;8.326;2023-02-28T07:15:11;-1.30;99.90
1568;DHT22;777;47.156;8.326;2023-02-28T07:17:38;-1.30;99.90
1568;DHT22;777;47.156;8.326;2023-02-28T07:20:06;-1.30;99.90
1568;DHT22;777;47.156;8.326;2023-02-28T07:22:34;-1.30;99.90
1568;DHT22;777;47.156;8.326;2023-02-28T07:25:01;-1.30;99.90
1568;DHT22;777;47.156;8.326;2023-02-28T07:27:28;-1.20;99.90
1568;DHT22;777;47.156;8.326;2023-02-28T07:29:55;-1.30;99.90
1568;DHT22;777;47.156;8.326;2023-02-28T07:32:23;-1.30;99.90
1568;DHT22;777;47.156;8.326;2023-02-28T07:34:50;-1.20;99.90
1568;DHT22;777;47.156;8.326;2023-02-28T07:37:17;-1.20;99.90
1568;DHT22;777;47.156;8.326;2023-02-28T07:39:44;-1.20;99.90
1568;DHT22;777;47.156;8.326;2023-02-28T07:42:11;-1.10;99.90
1568;DHT22;777;47.156;8.326;2023-02-28T07:44:39;-1.10;99.90
1568;DHT22;777;47.156;8.326;2023-02-28T07:47:07;-1.10;99.90
1568;DHT22;777;47.156;8.326;2023-02-28T07:49:36;-1.00;99.90
1568;DHT22;777;47.156;8.326;2023-02-28T07:52:04;-1.00;99.90
1568;DHT22;777;47.156;8.326;2023-02-28T07:54:32;-1.00;99.90
1568;DHT22;777;47.156;8.326;2023-02-28T07:56:59;-1.10;99.90
1568;DHT22;777;47.156;8.326;2023-02-28T07:59:26;-1.00;99.90
1568;DHT22;777;47.156;8.326;2023-02-28T08:01:53;-1.00;99.90
1568;DHT22;777;47.156;8.326;2023-02-28T08:04:20;-1.00;99.90
1568;DHT22;777;47.156;8.326;2023-02-28T08:06:48;-0.90;99.90
1568;DHT22;777;47.156;8.326;2023-02-28T08:09:17;-0.90;99.90
1568;DHT22;777;47.156;8.326;2023-02-28T08:11:44;-0.80;99.90
1568;DHT22;777;47.156;8.326;2023-02-28T08:14:11;-0.80;99.90
1568;DHT22;777;47.156;8.326;2023-02-28T08:16:39;-0.80;99.90
1568;DHT22;777;47.156;8.326;2023-02-28T08:19:06;-0.80;99.90
1568;DHT22;777;47.156;8.326;2023-02-28T08:21:33;-0.60;99.90
1568;DHT22;777;47.156;8.326;2023-02-28T08:24:01;-0.60;99.90
1568;DHT22;777;47.156;8.326;2023-02-28T08:26:28;-0.60;99.90
1568;DHT22;777;47.156;8.326;2023-02-28T08:28:55;-0.50;99.90
1568;DHT22;777;47.156;8.326;2023-02-28T08:31:22;-0.50;99.90
1568;DHT22;777;47.156;8.326;2023-02-28T08:33:49;-0.40;99.90
1568;DHT22;777;47.156;8.326;2023-02-28T08:36:19;-0.30;99.90
1568;DHT22;777;47.156;8.326;2023-02-28T08:38:46;-0.30;99.90
1568;DHT22;777;47.156;8.326;2023-02-28T08:41:14;-0.40;99.90
1568;DHT22;777;47.156;8.326;2023-02-28T08:43:41;-0.30;99.90
1568;DHT22;777;47.156;8.326;2023-02-28T08:46:11;-0.10;99.90
1568;DHT22;777;47.156;8.326;2023-02-28T08:48:39;-0.10;99.90
1568;DHT22;777;47.156;8.326;2023-02-28T08:51:08;0.00;99.90
1568;DHT22;777;47.156;8.326;2023-02-28T08:53:36;0.10;99.90
1568;DHT22;777;47.156;8.326;2023-02-28T08:56:05;0.20;99.90
1568;DHT22;777;47.156;8.326;2023-02-28T08:58:34;0.30;99.90
1568;DHT22;777;47.156;8.326;2023-02-28T09:01:08;0.20;99.90
1568;DHT22;777;47.156;8.326;2023-02-28T09:03:36;0.00;99.90
1568;DHT22;777;47.156;8.326;2023-02-28T09:06:03;-0.10;99.90
1568;DHT22;777;47.156;8.326;2023-02-28T09:08:31;0.00;99.90
1568;DHT22;777;47.156;8.326;2023-02-28T09:10:58;0.10;99.90
1568;DHT22;777;47.156;8.326;2023-02-28T09:13:26;0.10;99.90
1568;DHT22;777;47.156;8.326;2023-02-28T09:15:57;-0.10;99.90
1568;DHT22;777;47.156;8.326;2023-02-28T09:18:25;-0.10;99.90
1568;DHT22;777;47.156;8.326;2023-02-28T09:20:52;0.00;99.90
1568;DHT22;777;47.156;8.326;2023-02-28T09:23:19;-0.10;99.90
1568;DHT22;777;47.156;8.326;2023-02-28T09:25:48;-0.10;99.90
1568;DHT22;777;47.156;8.326;2023-02-28T09:28:16;0.00;99.90
1568;DHT22;777;47.156;8.326;2023-02-28T09:30:45;0.10;99.90
1568;DHT22;777;47.156;8.326;2023-02-28T09:33:14;0.10;99.90
1568;DHT22;777;47.156;8.326;2023-02-28T09:35:41;0.10;99.90
1568;DHT22;777;47.156;8.326;2023-02-28T09:38:09;0.30;99.90
1568;DHT22;777;47.156;8.326;2023-02-28T09:40:37;0.20;99.90
1568;DHT22;777;47.156;8.326;2023-02-28T09:43:09;0.10;99.90
1568;DHT22;777;47.156;8.326;2023-02-28T09:45:41;0.40;99.90
1568;DHT22;777;47.156;8.326;2023-02-28T09:48:14;0.60;99.90
1568;DHT22;777;47.156;8.326;2023-02-28T09:50:44;0.60;99.90
1568;DHT22;777;47.156;8.326;2023-02-28T09:53:18;0.90;99.90
1568;DHT22;777;47.156;8.326;2023-02-28T09:55:47;0.80;99.90
1568;DHT22;777;47.156;8.326;2023-02-28T09:58:18;1.10;99.90
1568;DHT22;777;47.156;8.326;2023-02-28T10:00:57;1.20;99.90
1568;DHT22;777;47.156;8.326;2023-02-28T10:03:30;1.40;99.90
1568;DHT22;777;47.156;8.326;2023-02-28T10:06:04;1.10;99.90
1568;DHT22;777;47.156;8.326;2023-02-28T10:08:37;0.70;99.90
1568;DHT22;777;47.156;8.326;2023-02-28T10:11:10;0.90;99.90
1568;DHT22;777;47.156;8.326;2023-02-28T10:13:46;0.80;99.90
1568;DHT22;777;47.156;8.326;2023-02-28T10:16:21;0.90;99.90
1568;DHT22;777;47.156;8.326;2023-02-28T10:18:52;1.10;99.90
1568;DHT22;777;47.156;8.326;2023-02-28T10:21:27;1.10;99.90
1568;DHT22;777;47.156;8.326;2023-02-28T10:24:02;1.50;99.90
1568;DHT22;777;47.156;8.326;2023-02-28T10:26:32;1.70;99.90
1568;DHT22;777;47.156;8.326;2023-02-28T10:28:59;1.90;99.90
1568;DHT22;777;47.156;8.326;2023-02-28T10:31:26;1.80;99.90
1568;DHT22;777;47.156;8.326;2023-02-28T10:33:55;1.70;99.90
1568;DHT22;777;47.156;8.326;2023-02-28T10:36:22;1.40;99.90
1568;DHT22;777;47.156;8.326;2023-02-28T10:38:49;1.40;99.90
1568;DHT22;777;47.156;8.326;2023-02-28T10:41:30;1.50;99.90
1568;DHT22;777;47.156;8.326;2023-02-28T10:44:17;1.00;99.90
1568;DHT22;777;47.156;8.326;2023-02-28T10:46:46;1.20;99.90
1568;DHT22;777;47.156;8.326;2023-02-28T10:49:17;1.20;99.90
1568;DHT22;777;47.156;8.326;2023-02-28T10:51:47;1.00;99.90
1568;DHT22;777;47.156;8.326;2023-02-28T10:54:16;1.10;99.90
1568;DHT22;777;47.156;8.326;2023-02-28T10:56:43;1.00;99.90
1568;DHT22;777;47.156;8.326;2023-02-28T10:59:28;0.80;99.90
1568;DHT22;777;47.156;8.326;2023-02-28T11:01:55;1.00;99.90
1568;DHT22;777;47.156;8.326;2023-02-28T11:04:35;0.80;99.90
1568;DHT22;777;47.156;8.326;2023-02-28T11:07:14;0.50;99.90
1568;DHT22;777;47.156;8.326;2023-02-28T11:09:45;0.70;99.90
1568;DHT22;777;47.156;8.326;2023-02-28T11:12:21;0.80;99.90
1568;DHT22;777;47.156;8.326;2023-02-28T11:14:51;0.80;99.90
1568;DHT22;777;47.156;8.326;2023-02-28T11:17:21;0.50;99.90
1568;DHT22;777;47.156;8.326;2023-02-28T11:19:52;0.60;99.90
1568;DHT22;777;47.156;8.326;2023-02-28T11:22:23;0.90;99.90
1568;DHT22;777;47.156;8.326;2023-02-28T11:24:56;0.80;99.90
1568;DHT22;777;47.156;8.326;2023-02-28T11:30:24;0.70;99.90
1568;DHT22;777;47.156;8.326;2023-02-28T11:32:51;0.70;99.90
1568;DHT22;777;47.156;8.326;2023-02-28T11:35:24;0.90;99.90
1568;DHT22;777;47.156;8.326;2023-02-28T11:37:53;1.00;99.90
1568;DHT22;777;47.156;8.326;2023-02-28T11:40:26;1.00;99.90
1568;DHT22;777;47.156;8.326;2023-02-28T11:43:04;1.00;99.90
1568;DHT22;777;47.156;8.326;2023-02-28T11:45:44;0.90;99.90
1568;DHT22;777;47.156;8.326;2023-02-28T11:48:19;1.10;99.90
1568;DHT22;777;47.156;8.326;2023-02-28T11:50:59;1.00;99.90
1568;DHT22;777;47.156;8.326;2023-02-28T11:53:43;1.00;99.90
1568;DHT22;777;47.156;8.326;2023-02-28T11:56:19;1.00;99.90
1568;DHT22;777;47.156;8.326;2023-02-28T11:58:57;1.10;99.90
1568;DHT22;777;47.156;8.326;2023-02-28T12:01:34;1.00;99.90
1568;DHT22;777;47.156;8.326;2023-02-28T12:04:17;1.20;99.90
1568;DHT22;777;47.156;8.326;2023-02-28T12:06:57;1.10;99.90
1568;DHT22;777;47.156;8.326;2023-02-28T12:09:37;1.20;99.90
1568;DHT22;777;47.156;8.326;2023-02-28T12:12:16;1.10;99.90
1568;DHT22;777;47.156;8.326;2023-02-28T12:17:46;1.40;99.90
1568;DHT22;777;47.156;8.326;2023-02-28T12:20:24;0.90;99.90
1568;DHT22;777;47.156;8.326;2023-02-28T12:23:07;0.90;99.90
1568;DHT22;777;47.156;8.326;2023-02-28T12:25:58;1.00;99.90
1568;DHT22;777;47.156;8.326;2023-02-28T12:28:31;0.90;99.90
1568;DHT22;777;47.156;8.326;2023-02-28T12:31:01;0.80;99.90
1568;DHT22;777;47.156;8.326;2023-02-28T12:33:33;0.90;99.90
1568;DHT22;777;47.156;8.326;2023-02-28T12:36:07;1.10;99.90
1568;DHT22;777;47.156;8.326;2023-02-28T12:38:40;1.20;99.90
1568;DHT22;777;47.156;8.326;2023-02-28T12:41:13;0.90;99.90
1568;DHT22;777;47.156;8.326;2023-02-28T12:43:45;1.10;99.90
1568;DHT22;777;47.156;8.326;2023-02-28T12:46:17;1.30;99.90
1568;DHT22;777;47.156;8.326;2023-02-28T12:48:49;1.50;99.90
1568;DHT22;777;47.156;8.326;2023-02-28T12:51:18;1.20;99.90
1568;DHT22;777;47.156;8.326;2023-02-28T12:53:57;1.60;99.90
1568;DHT22;777;47.156;8.326;2023-02-28T12:56:38;1.30;99.90
1568;DHT22;777;47.156;8.326;2023-02-28T12:59:14;1.50;99.90
1568;DHT22;777;47.156;8.326;2023-02-28T13:02:00;1.30;99.90
1568;DHT22;777;47.156;8.326;2023-02-28T13:10:17;1.30;99.90
1568;DHT22;777;47.156;8.326;2023-02-28T13:12:49;1.60;99.90
1568;DHT22;777;47.156;8.326;2023-02-28T13:15:19;1.50;99.90
1568;DHT22;777;47.156;8.326;2023-02-28T13:17:51;1.60;99.90
1568;DHT22;777;47.156;8.326;2023-02-28T13:20:19;1.70;99.90
1568;DHT22;777;47.156;8.326;2023-02-28T13:22:48;1.80;99.90
1568;DHT22;777;47.156;8.326;2023-02-28T13:34:49;1.20;99.90
1568;DHT22;777;47.156;8.326;2023-02-28T13:37:36;1.00;99.90
1568;DHT22;777;47.156;8.326;2023-02-28T13:40:29;1.10;99.90
1568;DHT22;777;47.156;8.326;2023-02-28T13:43:02;1.30;99.90
1568;DHT22;777;47.156;8.326;2023-02-28T13:45:30;1.50;99.90
1568;DHT22;777;47.156;8.326;2023-02-28T13:48:12;1.00;99.90
1568;DHT22;777;47.156;8.326;2023-02-28T13:50:43;0.80;99.90
1568;DHT22;777;47.156;8.326;2023-02-28T13:53:46;0.80;99.90
1568;DHT22;777;47.156;8.326;2023-02-28T13:56:36;0.80;99.90
1568;DHT22;777;47.156;8.326;2023-02-28T13:59:19;0.60;99.90
1568;DHT22;777;47.156;8.326;2023-02-28T14:01:55;0.70;99.90
1568;DHT22;777;47.156;8.326;2023-02-28T14:04:50;0.80;99.90
1568;DHT22;777;47.156;8.326;2023-02-28T14:07:25;0.80;99.90
1568;DHT22;777;47.156;8.326;2023-02-28T14:10:01;0.70;99.90
1568;DHT22;777;47.156;8.326;2023-02-28T14:13:03;0.90;99.90
1568;DHT22;777;47.156;8.326;2023-02-28T14:15:47;0.80;99.90
1568;DHT22;777;47.156;8.326;2023-02-28T14:18:19;0.60;99.90
1568;DHT22;777;47.156;8.326;2023-02-28T14:20:48;0.60;99.90
1568;DHT22;777;47.156;8.326;2023-02-28T14:23:36;0.70;99.90
1568;DHT22;777;47.156;8.326;2023-02-28T14:26:17;0.70;99.90
1568;DHT22;777;47.156;8.326;2023-02-28T14:29:05;0.40;99.90
1568;DHT22;777;47.156;8.326;2023-02-28T14:31:44;0.40;99.90
1568;DHT22;777;47.156;8.326;2023-02-28T14:34:26;0.50;99.90
1568;DHT22;777;47.156;8.326;2023-02-28T14:36:54;0.50;99.90
1568;DHT22;777;47.156;8.326;2023-02-28T14:39:27;0.60;99.90
1568;DHT22;777;47.156;8.326;2023-02-28T14:41:57;0.60;99.90
1568;DHT22;777;47.156;8.326;2023-02-28T14:44:29;0.40;99.90
1568;DHT22;777;47.156;8.326;2023-02-28T14:46:57;0.40;99.90
1568;DHT22;777;47.156;8.326;2023-02-28T14:49:28;0.30;99.90
1568;DHT22;777;47.156;8.326;2023-02-28T14:52:12;0.40;99.90
1568;DHT22;777;47.156;8.326;2023-02-28T14:58:59;0.30;99.90
1568;DHT22;777;47.156;8.326;2023-02-28T15:01:26;0.20;99.90
1568;DHT22;777;47.156;8.326;2023-02-28T15:04:02;0.10;99.90
1568;DHT22;777;47.156;8.326;2023-02-28T15:06:29;0.10;99.90
1568;DHT22;777;47.156;8.326;2023-02-28T15:09:16;0.20;99.90
1568;DHT22;777;47.156;8.326;2023-02-28T15:11:47;0.20;99.90
1568;DHT22;777;47.156;8.326;2023-02-28T15:14:18;0.20;99.90
1568;DHT22;777;47.156;8.326;2023-02-28T15:16:50;0.20;99.90
1568;DHT22;777;47.156;8.326;2023-02-28T15:19:22;0.20;99.90
1568;DHT22;777;47.156;8.326;2023-02-28T15:21:53;0.20;99.90
1568;DHT22;777;47.156;8.326;2023-02-28T15:24:27;0.20;99.90
1568;DHT22;777;47.156;8.326;2023-02-28T15:27:00;0.10;99.90
1568;DHT22;777;47.156;8.326;2023-02-28T15:29:36;0.20;99.90
1568;DHT22;777;47.156;8.326;2023-02-28T15:32:06;0.20;99.90
1568;DHT22;777;47.156;8.326;2023-02-28T15:34:36;0.20;99.90
1568;DHT22;777;47.156;8.326;2023-02-28T15:39:48;0.10;99.90
1568;DHT22;777;47.156;8.326;2023-02-28T15:42:19;0.00;99.90
1568;DHT22;777;47.156;8.326;2023-02-28T15:44:47;0.00;99.90
1568;DHT22;777;47.156;8.326;2023-02-28T15:47:23;0.00;99.90
1568;DHT22;777;47.156;8.326;2023-02-28T15:50:12;0.00;99.90
1568;DHT22;777;47.156;8.326;2023-02-28T15:52:51;0.00;99.90
1568;DHT22;777;47.156;8.326;2023-02-28T15:55:20;-0.10;99.90
1568;DHT22;777;47.156;8.326;2023-02-28T15:57:50;-0.10;99.90
1568;DHT22;777;47.156;8.326;2023-02-28T16:00:22;-0.10;99.90
1568;DHT22;777;47.156;8.326;2023-02-28T16:02:50;0.00;99.90
1568;DHT22;777;47.156;8.326;2023-02-28T16:05:21;0.00;99.90
1568;DHT22;777;47.156;8.326;2023-02-28T16:07:54;-0.10;99.90
1568;DHT22;777;47.156;8.326;2023-02-28T16:10:21;-0.10;99.90
1568;DHT22;777;47.156;8.326;2023-02-28T16:12:51;-0.20;99.90
1568;DHT22;777;47.156;8.326;2023-02-28T16:15:22;-0.10;99.90
1568;DHT22;777;47.156;8.326;2023-02-28T16:17:50;-0.20;99.90
1568;DHT22;777;47.156;8.326;2023-02-28T16:20:21;-0.20;99.90
1568;DHT22;777;47.156;8.326;2023-02-28T16:22:48;-0.20;99.90
1568;DHT22;777;47.156;8.326;2023-02-28T16:25:17;-0.20;99.90
1568;DHT22;777;47.156;8.326;2023-02-28T16:27:48;-0.20;99.90
1568;DHT22;777;47.156;8.326;2023-02-28T16:30:21;-0.10;99.90
1568;DHT22;777;47.156;8.326;2023-02-28T16:32:49;-0.20;99.90
1568;DHT22;777;47.156;8.326;2023-02-28T16:35:17;-0.20;99.90
1568;DHT22;777;47.156;8.326;2023-02-28T16:37:44;-0.20;99.90
1568;DHT22;777;47.156;8.326;2023-02-28T16:40:14;-0.20;99.90
1568;DHT22;777;47.156;8.326;2023-02-28T16:42:43;-0.20;99.90
1568;DHT22;777;47.156;8.326;2023-02-28T16:45:16;-0.20;99.90
1568;DHT22;777;47.156;8.326;2023-02-28T16:47:46;-0.20;99.90
1568;DHT22;777;47.156;8.326;2023-02-28T16:50:16;-0.30;99.90
1568;DHT22;777;47.156;8.326;2023-02-28T16:52:44;-0.30;99.90
1568;DHT22;777;47.156;8.326;2023-02-28T16:55:12;-0.30;99.90
1568;DHT22;777;47.156;8.326;2023-02-28T16:57:39;-0.30;99.90
1568;DHT22;777;47.156;8.326;2023-02-28T17:00:12;-0.30;99.90
1568;DHT22;777;47.156;8.326;2023-02-28T17:02:39;-0.30;99.90
1568;DHT22;777;47.156;8.326;2023-02-28T17:05:10;-0.30;99.90
1568;DHT22;777;47.156;8.326;2023-02-28T17:07:38;-0.30;99.90
1568;DHT22;777;47.156;8.326;2023-02-28T17:10:13;-0.30;99.90
1568;DHT22;777;47.156;8.326;2023-02-28T17:12:41;-0.30;99.90
1568;DHT22;777;47.156;8.326;2023-02-28T17:15:09;-0.30;99.90
1568;DHT22;777;47.156;8.326;2023-02-28T17:17:37;-0.30;99.90
1568;DHT22;777;47.156;8.326;2023-02-28T17:20:05;-0.30;99.90
1568;DHT22;777;47.156;8.326;2023-02-28T17:22:34;-0.30;99.90
1568;DHT22;777;47.156;8.326;2023-02-28T17:25:01;-0.30;99.90